sensor_id;sensor_type;location;lat;lon;timestamp;pressure;altitude;pressure_sealevel;temperature;humidity
72794;BME280;63436;26.334;50.194;2023-02-15T00:01:39;61397.39;;;13.90;65.05
72794;BME280;63436;26.334;50.194;2023-02-15T00:04:06;61397.39;;;14.14;65.05
72794;BME280;63436;26.334;50.194;2023-02-15T00:06:31;61397.39;;;13.90;65.05
72794;BME280;63436;26.334;50.194;2023-02-15T00:08:56;61397.39;;;13.90;65.05
72794;BME280;63436;26.334;50.194;2023-02-15T00:11:22;61397.39;;;14.14;65.05
72794;BME280;63436;26.334;50.194;2023-02-15T00:13:46;61397.39;;;14.14;65.05
72794;BME280;63436;26.334;50.194;2023-02-15T00:16:12;61397.39;;;13.90;65.05
72794;BME280;63436;26.334;50.194;2023-02-15T00:18:37;61397.39;;;13.66;65.05
72794;BME280;63436;26.334;50.194;2023-02-15T00:21:04;61397.39;;;13.90;65.05
72794;BME280;63436;26.334;50.194;2023-02-15T00:23:27;61397.39;;;13.90;65.05
72794;BME280;63436;26.334;50.194;2023-02-15T00:25:52;61397.39;;;13.66;65.05
72794;BME280;63436;26.334;50.194;2023-02-15T00:28:18;61397.39;;;13.90;65.05
72794;BME280;63436;26.334;50.194;2023-02-15T00:30:43;61397.39;;;14.14;65.05
72794;BME280;63436;26.334;50.194;2023-02-15T00:33:14;61397.39;;;14.14;65.05
72794;BME280;63436;26.334;50.194;2023-02-15T00:35:35;61397.39;;;14.14;65.05
72794;BME280;63436;26.334;50.194;2023-02-15T00:38:00;61397.39;;;14.14;65.05
72794;BME280;63436;26.334;50.194;2023-02-15T00:40:26;61397.39;;;14.14;65.05
72794;BME280;63436;26.334;50.194;2023-02-15T00:42:52;61397.39;;;14.14;65.05
72794;BME280;63436;26.334;50.194;2023-02-15T00:45:17;61397.39;;;13.90;65.05
72794;BME280;63436;26.334;50.194;2023-02-15T00:47:44;61397.39;;;14.14;65.05
72794;BME280;63436;26.334;50.194;2023-02-15T00:50:09;61397.39;;;14.14;65.05
72794;BME280;63436;26.334;50.194;2023-02-15T00:52:34;61397.39;;;14.14;65.05
72794;BME280;63436;26.334;50.194;2023-02-15T00:54:59;61397.39;;;14.14;65.05
72794;BME280;63436;26.334;50.194;2023-02-15T00:57:25;61397.39;;;14.14;65.05
72794;BME280;63436;26.334;50.194;2023-02-15T00:59:50;61397.39;;;14.14;65.05
72794;BME280;63436;26.334;50.194;2023-02-15T01:02:16;61397.39;;;14.14;65.05
72794;BME280;63436;26.334;50.194;2023-02-15T01:04:42;61397.39;;;14.38;65.05
72794;BME280;63436;26.334;50.194;2023-02-15T01:07:07;61397.39;;;14.14;65.05
72794;BME280;63436;26.334;50.194;2023-02-15T01:09:33;61397.39;;;14.14;65.05
72794;BME280;63436;26.334;50.194;2023-02-15T01:11:59;61397.39;;;14.14;65.05
72794;BME280;63436;26.334;50.194;2023-02-15T01:14:24;61397.39;;;14.14;65.05
72794;BME280;63436;26.334;50.194;2023-02-15T01:16:49;61397.39;;;13.90;65.05
72794;BME280;63436;26.334;50.194;2023-02-15T01:19:16;61397.39;;;14.14;65.05
72794;BME280;63436;26.334;50.194;2023-02-15T01:21:41;61397.39;;;14.14;65.05
72794;BME280;63436;26.334;50.194;2023-02-15T01:24:11;61397.39;;;14.14;65.05
72794;BME280;63436;26.334;50.194;2023-02-15T01:26:32;61397.39;;;14.14;65.05
72794;BME280;63436;26.334;50.194;2023-02-15T01:28:57;61397.39;;;14.14;65.05
72794;BME280;63436;26.334;50.194;2023-02-15T01:31:23;61397.39;;;14.14;65.05
72794;BME280;63436;26.334;50.194;2023-02-15T01:33:49;61397.39;;;13.90;65.05
72794;BME280;63436;26.334;50.194;2023-02-15T01:36:15;61397.39;;;14.14;65.05
72794;BME280;63436;26.334;50.194;2023-02-15T01:38:40;61397.39;;;13.90;65.05
72794;BME280;63436;26.334;50.194;2023-02-15T01:41:07;61397.39;;;13.90;65.05
72794;BME280;63436;26.334;50.194;2023-02-15T01:43:40;61397.39;;;13.90;65.05
72794;BME280;63436;26.334;50.194;2023-02-15T01:45:56;61397.39;;;14.14;65.05
72794;BME280;63436;26.334;50.194;2023-02-15T01:48:24;61397.39;;;13.90;65.05
72794;BME280;63436;26.334;50.194;2023-02-15T01:50:50;61397.39;;;13.90;65.05
72794;BME280;63436;26.334;50.194;2023-02-15T01:53:18;61397.39;;;13.90;65.05
72794;BME280;63436;26.334;50.194;2023-02-15T01:55:40;61397.39;;;13.90;65.05
72794;BME280;63436;26.334;50.194;2023-02-15T01:58:03;61397.39;;;13.90;65.05
72794;BME280;63436;26.334;50.194;2023-02-15T02:00:27;61397.39;;;13.90;65.05
72794;BME280;63436;26.334;50.194;2023-02-15T02:02:56;61397.39;;;13.90;65.05
72794;BME280;63436;26.334;50.194;2023-02-15T02:05:18;61397.39;;;14.14;65.05
72794;BME280;63436;26.334;50.194;2023-02-15T02:07:45;61397.39;;;14.14;65.05
72794;BME280;63436;26.334;50.194;2023-02-15T02:10:11;61397.39;;;14.14;65.05
72794;BME280;63436;26.334;50.194;2023-02-15T02:12:35;61397.39;;;14.14;65.05
72794;BME280;63436;26.334;50.194;2023-02-15T02:15:05;61397.39;;;14.14;65.05
72794;BME280;63436;26.334;50.194;2023-02-15T02:17:31;61397.39;;;14.14;65.05
72794;BME280;63436;26.334;50.194;2023-02-15T02:20:09;61397.39;;;13.90;65.05
72794;BME280;63436;26.334;50.194;2023-02-15T02:27:18;61397.39;;;14.14;65.05
72794;BME280;63436;26.334;50.194;2023-02-15T02:29:57;61397.39;;;14.14;65.05
72794;BME280;63436;26.334;50.194;2023-02-15T02:32:09;61397.39;;;13.90;65.05
72794;BME280;63436;26.334;50.194;2023-02-15T02:34:26;61397.39;;;14.14;65.05
72794;BME280;63436;26.334;50.194;2023-02-15T02:36:55;61397.39;;;14.14;65.05
72794;BME280;63436;26.334;50.194;2023-02-15T02:39:25;61397.39;;;13.90;65.05
72794;BME280;63436;26.334;50.194;2023-02-15T02:41:49;61397.39;;;13.90;65.05
72794;BME280;63436;26.334;50.194;2023-02-15T02:44:12;61397.39;;;14.14;65.05
72794;BME280;63436;26.334;50.194;2023-02-15T02:46:34;61397.39;;;14.14;65.05
72794;BME280;63436;26.334;50.194;2023-02-15T02:48:57;61397.39;;;14.14;65.05
72794;BME280;63436;26.334;50.194;2023-02-15T02:51:22;61397.39;;;14.14;65.05
72794;BME280;63436;26.334;50.194;2023-02-15T02:53:50;61397.39;;;14.14;65.05
72794;BME280;63436;26.334;50.194;2023-02-15T02:56:18;61397.39;;;14.14;65.05
72794;BME280;63436;26.334;50.194;2023-02-15T02:58:41;61397.39;;;14.14;65.05
72794;BME280;63436;26.334;50.194;2023-02-15T03:01:10;61397.39;;;13.90;65.05
72794;BME280;63436;26.334;50.194;2023-02-15T03:03:34;61397.39;;;14.14;65.05
72794;BME280;63436;26.334;50.194;2023-02-15T03:05:58;61397.39;;;13.90;65.05
72794;BME280;63436;26.334;50.194;2023-02-15T03:08:23;61397.39;;;14.14;65.05
72794;BME280;63436;26.334;50.194;2023-02-15T03:10:46;61397.39;;;14.14;65.05
72794;BME280;63436;26.334;50.194;2023-02-15T03:13:12;61397.39;;;13.66;65.05
72794;BME280;63436;26.334;50.194;2023-02-15T03:15:38;61397.39;;;14.14;65.05
72794;BME280;63436;26.334;50.194;2023-02-15T03:18:03;61397.39;;;14.14;65.05
72794;BME280;63436;26.334;50.194;2023-02-15T03:20:30;61397.39;;;13.90;65.05
72794;BME280;63436;26.334;50.194;2023-02-15T03:22:55;61397.39;;;13.90;65.05
72794;BME280;63436;26.334;50.194;2023-02-15T03:25:21;61397.39;;;13.90;65.05
72794;BME280;63436;26.334;50.194;2023-02-15T03:27:48;61397.39;;;14.14;65.05
72794;BME280;63436;26.334;50.194;2023-02-15T03:30:09;61397.39;;;13.90;65.05
72794;BME280;63436;26.334;50.194;2023-02-15T03:32:34;61397.39;;;13.66;65.05
72794;BME280;63436;26.334;50.194;2023-02-15T03:34:58;61397.39;;;13.90;65.05
72794;BME280;63436;26.334;50.194;2023-02-15T03:37:28;61397.39;;;14.14;65.05
72794;BME280;63436;26.334;50.194;2023-02-15T03:39:53;61397.39;;;14.14;65.05
72794;BME280;63436;26.334;50.194;2023-02-15T03:42:18;61397.39;;;14.14;65.05
72794;BME280;63436;26.334;50.194;2023-02-15T03:44:46;61397.39;;;14.14;65.05
72794;BME280;63436;26.334;50.194;2023-02-15T03:47:08;61397.39;;;14.14;65.05
72794;BME280;63436;26.334;50.194;2023-02-15T03:49:36;61397.39;;;13.90;65.05
72794;BME280;63436;26.334;50.194;2023-02-15T03:51:57;61397.39;;;14.14;65.05
72794;BME280;63436;26.334;50.194;2023-02-15T03:54:24;61397.39;;;13.90;65.05
72794;BME280;63436;26.334;50.194;2023-02-15T03:56:46;61397.39;;;14.14;65.05
72794;BME280;63436;26.334;50.194;2023-02-15T03:59:11;61397.39;;;14.14;65.05
72794;BME280;63436;26.334;50.194;2023-02-15T04:01:39;61397.39;;;14.14;65.05
72794;BME280;63436;26.334;50.194;2023-02-15T04:04:07;61397.39;;;13.90;65.05
72794;BME280;63436;26.334;50.194;2023-02-15T04:06:27;61397.39;;;13.90;65.05
72794;BME280;63436;26.334;50.194;2023-02-15T04:08:53;61397.39;;;14.14;65.05
72794;BME280;63436;26.334;50.194;2023-02-15T04:11:18;61397.39;;;13.90;65.05
72794;BME280;63436;26.334;50.194;2023-02-15T04:13:43;61397.39;;;13.66;65.05
72794;BME280;63436;26.334;50.194;2023-02-15T04:16:09;61397.39;;;13.90;65.05
72794;BME280;63436;26.334;50.194;2023-02-15T04:18:35;61397.39;;;13.90;65.05
72794;BME280;63436;26.334;50.194;2023-02-15T04:20:59;61397.39;;;13.90;65.05
72794;BME280;63436;26.334;50.194;2023-02-15T04:23:25;61397.39;;;13.90;65.05
72794;BME280;63436;26.334;50.194;2023-02-15T04:25:50;61397.39;;;13.66;65.05
72794;BME280;63436;26.334;50.194;2023-02-15T04:28:15;61397.39;;;13.66;65.05
72794;BME280;63436;26.334;50.194;2023-02-15T04:30:42;61397.39;;;13.66;65.05
72794;BME280;63436;26.334;50.194;2023-02-15T04:33:06;61397.39;;;13.66;65.05
72794;BME280;63436;26.334;50.194;2023-02-15T04:35:31;61397.39;;;13.66;65.05
72794;BME280;63436;26.334;50.194;2023-02-15T04:37:57;61397.39;;;13.66;65.05
72794;BME280;63436;26.334;50.194;2023-02-15T04:40:21;61397.39;;;13.66;65.05
72794;BME280;63436;26.334;50.194;2023-02-15T04:42:48;61397.39;;;13.66;65.05
72794;BME280;63436;26.334;50.194;2023-02-15T04:45:13;61397.39;;;13.42;65.05
72794;BME280;63436;26.334;50.194;2023-02-15T04:47:39;61397.39;;;13.66;65.05
72794;BME280;63436;26.334;50.194;2023-02-15T04:50:06;61397.39;;;13.66;65.05
72794;BME280;63436;26.334;50.194;2023-02-15T04:52:31;61397.39;;;13.42;65.05
72794;BME280;63436;26.334;50.194;2023-02-15T04:54:56;61397.39;;;13.66;65.05
72794;BME280;63436;26.334;50.194;2023-02-15T04:57:21;61397.39;;;13.42;65.05
72794;BME280;63436;26.334;50.194;2023-02-15T04:59:46;61397.39;;;13.18;65.05
72794;BME280;63436;26.334;50.194;2023-02-15T05:02:11;61397.39;;;13.66;65.05
72794;BME280;63436;26.334;50.194;2023-02-15T05:04:37;61397.39;;;13.18;65.05
72794;BME280;63436;26.334;50.194;2023-02-15T05:07:03;61397.39;;;13.18;65.05
72794;BME280;63436;26.334;50.194;2023-02-15T05:09:27;61397.39;;;13.18;65.05
72794;BME280;63436;26.334;50.194;2023-02-15T05:11:52;61397.39;;;13.18;65.05
72794;BME280;63436;26.334;50.194;2023-02-15T05:14:20;61397.39;;;13.18;65.05
72794;BME280;63436;26.334;50.194;2023-02-15T05:16:43;61397.39;;;12.94;65.05
72794;BME280;63436;26.334;50.194;2023-02-15T05:19:09;61397.39;;;13.18;65.05
72794;BME280;63436;26.334;50.194;2023-02-15T05:21:34;61397.39;;;13.18;65.05
72794;BME280;63436;26.334;50.194;2023-02-15T05:23:59;61397.39;;;12.94;65.05
72794;BME280;63436;26.334;50.194;2023-02-15T05:26:25;61397.39;;;13.18;65.05
72794;BME280;63436;26.334;50.194;2023-02-15T05:28:51;61397.39;;;13.18;65.05
72794;BME280;63436;26.334;50.194;2023-02-15T05:31:18;61397.39;;;13.18;65.05
72794;BME280;63436;26.334;50.194;2023-02-15T05:33:41;61397.39;;;13.18;65.05
72794;BME280;63436;26.334;50.194;2023-02-15T05:36:07;61397.39;;;13.18;65.05
72794;BME280;63436;26.334;50.194;2023-02-15T05:38:32;61397.39;;;13.18;65.05
72794;BME280;63436;26.334;50.194;2023-02-15T05:40:57;61397.39;;;12.94;65.05
72794;BME280;63436;26.334;50.194;2023-02-15T05:43:24;61397.39;;;13.18;65.05
72794;BME280;63436;26.334;50.194;2023-02-15T05:45:50;61397.39;;;12.70;65.05
72794;BME280;63436;26.334;50.194;2023-02-15T05:48:14;61397.39;;;12.70;65.05
72794;BME280;63436;26.334;50.194;2023-02-15T05:50:39;61397.39;;;13.18;65.05
72794;BME280;63436;26.334;50.194;2023-02-15T05:53:05;61397.39;;;12.94;65.05
72794;BME280;63436;26.334;50.194;2023-02-15T05:55:30;61397.39;;;13.18;65.05
72794;BME280;63436;26.334;50.194;2023-02-15T05:57:56;61397.39;;;12.94;65.05
72794;BME280;63436;26.334;50.194;2023-02-15T06:00:22;61397.39;;;13.18;65.05
72794;BME280;63436;26.334;50.194;2023-02-15T06:02:47;61397.39;;;12.94;65.05
72794;BME280;63436;26.334;50.194;2023-02-15T06:05:13;61397.39;;;12.94;65.05
72794;BME280;63436;26.334;50.194;2023-02-15T06:07:38;61397.39;;;12.94;65.05
72794;BME280;63436;26.334;50.194;2023-02-15T06:10:05;61397.39;;;12.70;65.05
72794;BME280;63436;26.334;50.194;2023-02-15T06:12:30;61397.39;;;13.18;65.05
72794;BME280;63436;26.334;50.194;2023-02-15T06:14:55;61397.39;;;12.94;65.05
72794;BME280;63436;26.334;50.194;2023-02-15T06:17:21;61397.39;;;12.94;65.05
72794;BME280;63436;26.334;50.194;2023-02-15T06:19:47;61397.39;;;13.18;65.05
72794;BME280;63436;26.334;50.194;2023-02-15T06:22:11;61397.39;;;12.70;65.05
72794;BME280;63436;26.334;50.194;2023-02-15T06:24:37;61397.39;;;12.94;65.05
72794;BME280;63436;26.334;50.194;2023-02-15T06:27:04;61397.39;;;12.94;65.05
72794;BME280;63436;26.334;50.194;2023-02-15T06:29:28;61397.39;;;12.94;65.05
72794;BME280;63436;26.334;50.194;2023-02-15T06:31:55;61397.39;;;12.46;65.05
72794;BME280;63436;26.334;50.194;2023-02-15T06:34:19;61397.39;;;12.70;65.05
72794;BME280;63436;26.334;50.194;2023-02-15T06:36:44;61397.39;;;12.70;65.05
72794;BME280;63436;26.334;50.194;2023-02-15T06:39:10;61397.39;;;12.94;65.05
72794;BME280;63436;26.334;50.194;2023-02-15T06:41:37;61397.39;;;12.70;65.05
72794;BME280;63436;26.334;50.194;2023-02-15T06:44:01;61397.39;;;12.46;65.05
72794;BME280;63436;26.334;50.194;2023-02-15T06:46:26;61397.39;;;12.22;65.05
72794;BME280;63436;26.334;50.194;2023-02-15T06:48:52;61397.39;;;12.70;65.05
72794;BME280;63436;26.334;50.194;2023-02-15T06:51:16;61397.39;;;12.70;65.05
72794;BME280;63436;26.334;50.194;2023-02-15T06:53:42;61397.39;;;12.70;65.05
72794;BME280;63436;26.334;50.194;2023-02-15T06:56:10;61397.39;;;12.46;65.05
72794;BME280;63436;26.334;50.194;2023-02-15T06:58:33;61397.39;;;12.22;65.05
72794;BME280;63436;26.334;50.194;2023-02-15T07:00:58;61397.39;;;12.22;65.05
72794;BME280;63436;26.334;50.194;2023-02-15T07:03:24;61397.39;;;12.22;65.05
72794;BME280;63436;26.334;50.194;2023-02-15T07:05:49;61397.39;;;11.99;65.05
72794;BME280;63436;26.334;50.194;2023-02-15T07:08:14;61397.39;;;12.22;65.05
72794;BME280;63436;26.334;50.194;2023-02-15T07:10:43;61397.39;;;12.22;65.05
72794;BME280;63436;26.334;50.194;2023-02-15T07:13:04;61397.39;;;12.22;65.05
72794;BME280;63436;26.334;50.194;2023-02-15T07:15:30;61397.39;;;11.99;65.05
72794;BME280;63436;26.334;50.194;2023-02-15T07:17:57;61397.39;;;12.22;65.05
72794;BME280;63436;26.334;50.194;2023-02-15T07:20:22;61397.39;;;12.22;65.05
72794;BME280;63436;26.334;50.194;2023-02-15T07:22:46;61397.39;;;12.70;65.05
72794;BME280;63436;26.334;50.194;2023-02-15T07:25:12;61397.39;;;12.46;65.05
72794;BME280;63436;26.334;50.194;2023-02-15T07:27:37;61397.39;;;12.22;65.05
72794;BME280;63436;26.334;50.194;2023-02-15T07:30:04;61397.39;;;12.94;65.05
72794;BME280;63436;26.334;50.194;2023-02-15T07:32:29;61397.39;;;12.70;65.05
72794;BME280;63436;26.334;50.194;2023-02-15T07:34:53;61397.39;;;12.46;65.05
72794;BME280;63436;26.334;50.194;2023-02-15T07:37:19;61397.39;;;12.94;65.05
72794;BME280;63436;26.334;50.194;2023-02-15T07:39:45;61397.39;;;13.42;65.05
72794;BME280;63436;26.334;50.194;2023-02-15T07:42:10;61397.39;;;12.94;65.05
72794;BME280;63436;26.334;50.194;2023-02-15T07:44:35;61397.39;;;12.94;65.05
72794;BME280;63436;26.334;50.194;2023-02-15T07:47:01;61397.39;;;12.70;65.05
72794;BME280;63436;26.334;50.194;2023-02-15T07:49:25;61397.39;;;12.94;65.05
72794;BME280;63436;26.334;50.194;2023-02-15T07:51:51;61397.39;;;13.18;65.05
72794;BME280;63436;26.334;50.194;2023-02-15T07:54:17;61397.39;;;13.18;65.05
72794;BME280;63436;26.334;50.194;2023-02-15T07:56:42;61397.39;;;12.94;65.05
72794;BME280;63436;26.334;50.194;2023-02-15T07:59:08;61397.39;;;12.46;65.05
72794;BME280;63436;26.334;50.194;2023-02-15T08:01:35;61397.39;;;12.70;65.05
72794;BME280;63436;26.334;50.194;2023-02-15T08:03:58;61397.39;;;12.46;65.05
72794;BME280;63436;26.334;50.194;2023-02-15T08:06:26;61397.39;;;12.94;65.05
72794;BME280;63436;26.334;50.194;2023-02-15T08:08:49;61397.39;;;13.18;65.05
72794;BME280;63436;26.334;50.194;2023-02-15T08:11:18;61397.39;;;12.70;65.05
72794;BME280;63436;26.334;50.194;2023-02-15T08:13:43;61397.39;;;12.94;65.05
72794;BME280;63436;26.334;50.194;2023-02-15T08:16:07;61397.39;;;12.70;65.05
72794;BME280;63436;26.334;50.194;2023-02-15T08:18:31;61397.39;;;12.46;65.05
72794;BME280;63436;26.334;50.194;2023-02-15T08:20:57;61397.39;;;12.22;65.05
72794;BME280;63436;26.334;50.194;2023-02-15T08:23:23;61397.39;;;12.22;65.05
72794;BME280;63436;26.334;50.194;2023-02-15T08:25:48;61397.39;;;12.22;65.05
72794;BME280;63436;26.334;50.194;2023-02-15T08:28:14;61397.39;;;12.22;65.05
72794;BME280;63436;26.334;50.194;2023-02-15T08:30:39;61397.39;;;12.46;65.05
72794;BME280;63436;26.334;50.194;2023-02-15T08:33:04;61397.39;;;12.70;65.05
72794;BME280;63436;26.334;50.194;2023-02-15T08:35:29;61397.39;;;12.46;65.05
72794;BME280;63436;26.334;50.194;2023-02-15T08:37:56;61397.39;;;12.46;65.05
72794;BME280;63436;26.334;50.194;2023-02-15T08:40:21;61397.39;;;12.22;65.05
72794;BME280;63436;26.334;50.194;2023-02-15T08:42:46;61397.39;;;12.70;65.05
72794;BME280;63436;26.334;50.194;2023-02-15T08:45:13;61397.39;;;12.22;65.05
72794;BME280;63436;26.334;50.194;2023-02-15T08:47:47;61397.39;;;12.70;65.05
72794;BME280;63436;26.334;50.194;2023-02-15T08:50:02;61397.39;;;13.18;65.05
72794;BME280;63436;26.334;50.194;2023-02-15T08:52:28;61397.39;;;12.70;65.05
72794;BME280;63436;26.334;50.194;2023-02-15T08:54:52;61397.39;;;12.70;65.05
72794;BME280;63436;26.334;50.194;2023-02-15T08:57:18;61397.39;;;12.70;65.05
72794;BME280;63436;26.334;50.194;2023-02-15T08:59:43;61397.39;;;12.22;65.05
72794;BME280;63436;26.334;50.194;2023-02-15T09:02:09;61397.39;;;12.22;65.05
72794;BME280;63436;26.334;50.194;2023-02-15T09:04:34;61397.39;;;12.22;65.05
72794;BME280;63436;26.334;50.194;2023-02-15T09:07:00;61397.39;;;12.22;65.05
72794;BME280;63436;26.334;50.194;2023-02-15T09:09:25;61397.39;;;12.70;65.05
72794;BME280;63436;26.334;50.194;2023-02-15T09:11:51;61397.39;;;12.22;65.05
72794;BME280;63436;26.334;50.194;2023-02-15T09:14:18;61397.39;;;12.22;65.05
72794;BME280;63436;26.334;50.194;2023-02-15T09:16:43;61397.39;;;12.46;65.05
72794;BME280;63436;26.334;50.194;2023-02-15T09:19:08;61397.39;;;12.46;65.05
72794;BME280;63436;26.334;50.194;2023-02-15T09:21:36;61397.39;;;12.46;65.05
72794;BME280;63436;26.334;50.194;2023-02-15T09:24:00;61397.39;;;12.46;65.05
72794;BME280;63436;26.334;50.194;2023-02-15T09:26:25;61397.39;;;12.46;65.05
72794;BME280;63436;26.334;50.194;2023-02-15T09:28:53;61397.39;;;12.46;65.05
72794;BME280;63436;26.334;50.194;2023-02-15T09:31:17;61397.39;;;12.70;65.05
72794;BME280;63436;26.334;50.194;2023-02-15T09:33:42;61397.39;;;12.22;65.05
72794;BME280;63436;26.334;50.194;2023-02-15T09:36:14;61397.39;;;12.70;65.05
72794;BME280;63436;26.334;50.194;2023-02-15T09:38:32;61397.39;;;12.94;65.05
72794;BME280;63436;26.334;50.194;2023-02-15T09:41:14;61397.39;;;12.94;65.05
72794;BME280;63436;26.334;50.194;2023-02-15T09:43:30;61397.39;;;12.94;65.05
72794;BME280;63436;26.334;50.194;2023-02-15T09:45:59;61397.39;;;13.18;65.05
72794;BME280;63436;26.334;50.194;2023-02-15T09:48:29;61397.39;;;12.94;65.05
72794;BME280;63436;26.334;50.194;2023-02-15T09:50:46;61397.39;;;12.94;65.05
72794;BME280;63436;26.334;50.194;2023-02-15T09:53:18;61397.39;;;12.94;65.05
72794;BME280;63436;26.334;50.194;2023-02-15T09:55:42;61397.39;;;13.18;65.05
72794;BME280;63436;26.334;50.194;2023-02-15T09:58:01;61397.39;;;13.18;65.05
72794;BME280;63436;26.334;50.194;2023-02-15T10:00:28;61397.39;;;13.18;65.05
72794;BME280;63436;26.334;50.194;2023-02-15T10:02:59;61397.39;;;13.42;65.05
72794;BME280;63436;26.334;50.194;2023-02-15T10:05:21;61397.39;;;13.18;65.05
72794;BME280;63436;26.334;50.194;2023-02-15T10:07:52;61397.39;;;12.94;65.05
72794;BME280;63436;26.334;50.194;2023-02-15T10:10:12;61397.39;;;12.94;65.05
72794;BME280;63436;26.334;50.194;2023-02-15T10:12:42;61397.39;;;12.46;65.05
72794;BME280;63436;26.334;50.194;2023-02-15T10:15:07;61397.39;;;12.46;65.05
72794;BME280;63436;26.334;50.194;2023-02-15T10:17:31;61397.39;;;12.22;65.05
72794;BME280;63436;26.334;50.194;2023-02-15T10:19:51;61397.39;;;12.70;65.05
72794;BME280;63436;26.334;50.194;2023-02-15T10:22:21;61397.39;;;12.70;65.05
72794;BME280;63436;26.334;50.194;2023-02-15T10:24:49;61397.39;;;12.46;65.05
72794;BME280;63436;26.334;50.194;2023-02-15T10:27:07;61397.39;;;12.22;65.05
72794;BME280;63436;26.334;50.194;2023-02-15T10:29:32;61397.39;;;12.70;65.05
72794;BME280;63436;26.334;50.194;2023-02-15T10:31:57;61397.39;;;12.46;65.05
72794;BME280;63436;26.334;50.194;2023-02-15T10:34:19;61397.39;;;12.22;65.05
72794;BME280;63436;26.334;50.194;2023-02-15T10:37:04;61397.39;;;12.22;65.05
72794;BME280;63436;26.334;50.194;2023-02-15T10:39:16;61397.39;;;12.22;65.05
72794;BME280;63436;26.334;50.194;2023-02-15T10:41:41;61397.39;;;12.22;65.05
72794;BME280;63436;26.334;50.194;2023-02-15T10:44:10;61397.39;;;12.70;65.05
72794;BME280;63436;26.334;50.194;2023-02-15T10:46:39;61397.39;;;12.22;65.05
72794;BME280;63436;26.334;50.194;2023-02-15T10:49:05;61397.39;;;11.99;65.05
72794;BME280;63436;26.334;50.194;2023-02-15T10:51:20;61397.39;;;12.22;65.05
72794;BME280;63436;26.334;50.194;2023-02-15T10:53:54;61397.39;;;12.22;65.05
72794;BME280;63436;26.334;50.194;2023-02-15T10:56:14;61397.39;;;11.99;65.05
72794;BME280;63436;26.334;50.194;2023-02-15T10:58:42;61397.39;;;11.99;65.05
72794;BME280;63436;26.334;50.194;2023-02-15T11:01:05;61397.39;;;11.99;65.05
72794;BME280;63436;26.334;50.194;2023-02-15T11:03:35;61397.39;;;12.22;65.05
72794;BME280;63436;26.334;50.194;2023-02-15T11:05:57;61397.39;;;12.22;65.05
72794;BME280;63436;26.334;50.194;2023-02-15T11:08:14;61397.39;;;12.22;65.05
72794;BME280;63436;26.334;50.194;2023-02-15T11:10:44;61397.39;;;12.22;65.05
72794;BME280;63436;26.334;50.194;2023-02-15T11:13:10;61397.39;;;12.22;65.05
72794;BME280;63436;26.334;50.194;2023-02-15T11:15:34;61397.39;;;12.22;65.05
72794;BME280;63436;26.334;50.194;2023-02-15T11:18:02;61397.39;;;12.22;65.05
72794;BME280;63436;26.334;50.194;2023-02-15T11:20:25;61397.39;;;12.70;65.05
72794;BME280;63436;26.334;50.194;2023-02-15T11:22:48;61397.39;;;12.94;65.05
72794;BME280;63436;26.334;50.194;2023-02-15T11:25:18;61397.39;;;12.94;65.05
72794;BME280;63436;26.334;50.194;2023-02-15T11:27:38;61397.39;;;12.70;65.05
72794;BME280;63436;26.334;50.194;2023-02-15T11:30:09;61397.39;;;12.46;65.05
72794;BME280;63436;26.334;50.194;2023-02-15T11:32:31;61397.39;;;12.22;65.05
72794;BME280;63436;26.334;50.194;2023-02-15T11:34:58;61397.39;;;12.22;65.05
72794;BME280;63436;26.334;50.194;2023-02-15T11:37:24;61397.39;;;12.70;65.05
72794;BME280;63436;26.334;50.194;2023-02-15T11:39:45;61397.39;;;12.46;65.05
72794;BME280;63436;26.334;50.194;2023-02-15T11:42:13;61397.39;;;12.46;65.05
72794;BME280;63436;26.334;50.194;2023-02-15T11:44:39;61397.39;;;12.94;65.05
72794;BME280;63436;26.334;50.194;2023-02-15T11:47:01;61397.39;;;12.94;65.05
72794;BME280;63436;26.334;50.194;2023-02-15T11:49:30;61397.39;;;12.22;65.05
72794;BME280;63436;26.334;50.194;2023-02-15T11:51:53;61397.39;;;12.22;65.05
72794;BME280;63436;26.334;50.194;2023-02-15T11:54:17;61397.39;;;12.22;65.05
72794;BME280;63436;26.334;50.194;2023-02-15T11:56:44;61397.39;;;12.46;65.05
72794;BME280;63436;26.334;50.194;2023-02-15T11:59:11;61397.39;;;12.22;65.05
72794;BME280;63436;26.334;50.194;2023-02-15T12:01:36;61397.39;;;12.22;65.05
72794;BME280;63436;26.334;50.194;2023-02-15T12:04:04;61397.39;;;12.22;65.05
72794;BME280;63436;26.334;50.194;2023-02-15T12:06:28;61397.39;;;12.22;65.05
72794;BME280;63436;26.334;50.194;2023-02-15T12:08:57;61397.39;;;12.22;65.05
72794;BME280;63436;26.334;50.194;2023-02-15T12:11:20;61397.39;;;12.22;65.05
72794;BME280;63436;26.334;50.194;2023-02-15T12:16:09;61397.39;;;11.75;65.05
72794;BME280;63436;26.334;50.194;2023-02-15T12:18:35;61397.39;;;11.75;65.05
72794;BME280;63436;26.334;50.194;2023-02-15T12:20:58;61397.39;;;11.75;65.05
72794;BME280;63436;26.334;50.194;2023-02-15T12:23:22;61397.39;;;11.75;65.05
72794;BME280;63436;26.334;50.194;2023-02-15T12:25:51;61397.39;;;11.75;65.05
72794;BME280;63436;26.334;50.194;2023-02-15T12:28:25;61397.39;;;11.75;65.05
72794;BME280;63436;26.334;50.194;2023-02-15T12:30:38;61397.39;;;12.22;65.05
72794;BME280;63436;26.334;50.194;2023-02-15T12:33:13;61397.39;;;11.75;65.05
72794;BME280;63436;26.334;50.194;2023-02-15T12:35:31;61397.39;;;11.75;65.05
72794;BME280;63436;26.334;50.194;2023-02-15T12:37:55;61397.39;;;11.75;65.05
72794;BME280;63436;26.334;50.194;2023-02-15T12:40:23;61397.39;;;11.75;65.05
72794;BME280;63436;26.334;50.194;2023-02-15T12:42:45;61397.39;;;11.51;65.05
72794;BME280;63436;26.334;50.194;2023-02-15T12:45:22;61397.39;;;11.75;65.05
72794;BME280;63436;26.334;50.194;2023-02-15T12:47:36;61397.39;;;11.75;65.05